»·PEaware :: N2442P KBFL-KPSP

N2442P :: KBFL-KPSP

FLIGHT INFORMATION

Flight Status: Arrived
Operator: Privately registered:
United States
More flights under this callsign
Pilot: Ken Q. (14290)
Aircraft: MOONEY M-20K/M ENCORE BRAVO
(M20T)
More flights by this aircraft type
Origin: KBFL Meadows
United States
Destination: KPSP Palm Springs Intl
United States
More flights between these airports :: More routes between these airports
Route: PMD MAJEK CAJON KBNG
File this flight plan on PilotEdge
Remarks: Via Cajon Pass
Altitude:
(Current/Filed)
9,500ft
Speed:
(Current/Filed)
175kts
Departed: 06-Jan-21 01:38 PM
Arrived: 06-Jan-21 02:45 PM
Distance/Time
Traveled:
158nm/1:07
Distance/Time
To Go:
Arrived

Flight Plot

Page will automatically refresh every two minutes.

Flight plan parsing failed; only flown route is shown


Map Options




Map Legend


Flown Route
Filed Route
Departure Airport
Arrival Airport
Navaid (VOR, NDB)
Fix

Horizontal Profiles

Position Reports

Time Latitude Longitude Heading Altitude Ground
Speed
06-Jan-21 12:47 35.425028 -119.042786 358 510ft 0kts
06-Jan-21 12:48 35.425028 -119.042786 358 510ft 0kts
06-Jan-21 12:49 35.425028 -119.042786 358 510ft 0kts
06-Jan-21 12:50 35.425028 -119.042786 358 510ft 0kts
06-Jan-21 12:51 35.425028 -119.042786 358 510ft 0kts
06-Jan-21 12:52 35.425028 -119.042786 358 510ft 0kts
06-Jan-21 12:53 35.425028 -119.042786 358 510ft 0kts
06-Jan-21 12:54 35.425028 -119.042786 358 510ft 0kts
06-Jan-21 12:55 35.425028 -119.042786 358 510ft 0kts
06-Jan-21 12:56 35.425028 -119.042786 358 510ft 0kts
06-Jan-21 12:57 35.425028 -119.042786 358 510ft 0kts
06-Jan-21 12:58 35.425028 -119.042786 358 510ft 0kts
06-Jan-21 12:59 35.425028 -119.042786 358 510ft 0kts
06-Jan-21 13:00 35.425028 -119.042786 358 510ft 0kts
06-Jan-21 13:01 35.425028 -119.042786 358 510ft 0kts
06-Jan-21 13:02 35.425028 -119.042786 358 510ft 0kts
06-Jan-21 13:03 35.425028 -119.042786 358 510ft 0kts
06-Jan-21 13:04 35.425028 -119.042786 358 510ft 0kts
06-Jan-21 13:05 35.425028 -119.042786 358 510ft 0kts
06-Jan-21 13:06 35.425028 -119.042786 358 510ft 0kts
06-Jan-21 13:07 35.425028 -119.042786 358 510ft 0kts
06-Jan-21 13:08 35.425028 -119.042786 358 510ft 0kts
06-Jan-21 13:09 35.425028 -119.042786 358 510ft 0kts
06-Jan-21 13:10 35.425028 -119.042786 358 510ft 0kts
06-Jan-21 13:11 35.425028 -119.042786 358 510ft 0kts
06-Jan-21 13:12 35.425028 -119.042786 358 510ft 0kts
06-Jan-21 13:13 35.425028 -119.042786 358 510ft 0kts
06-Jan-21 13:14 35.425028 -119.042786 358 510ft 0kts
06-Jan-21 13:15 35.425028 -119.042786 358 510ft 0kts
06-Jan-21 13:16 35.425028 -119.042786 358 510ft 0kts
06-Jan-21 13:17 35.425028 -119.042786 358 510ft 0kts
06-Jan-21 13:18 35.425028 -119.042786 358 510ft 0kts
06-Jan-21 13:19 35.425028 -119.042786 358 510ft 0kts
06-Jan-21 13:20 35.425028 -119.042786 358 510ft 0kts
06-Jan-21 13:21 35.425028 -119.042786 358 510ft 0kts
06-Jan-21 13:22 35.425028 -119.042786 358 510ft 0kts
06-Jan-21 13:23 35.425028 -119.042786 358 510ft 0kts
06-Jan-21 13:24 35.425028 -119.042786 358 510ft 0kts
06-Jan-21 13:25 35.425028 -119.042786 358 510ft 0kts
06-Jan-21 13:26 35.425029 -119.042786 358 510ft 0kts
06-Jan-21 13:27 35.425029 -119.042786 358 510ft 0kts
06-Jan-21 13:28 35.425030 -119.042786 358 510ft 0kts
06-Jan-21 13:29 35.425030 -119.042786 358 510ft 0kts
06-Jan-21 13:30 35.425031 -119.042786 358 510ft 0kts
06-Jan-21 13:32 35.425031 -119.042786 358 510ft 0kts
06-Jan-21 13:33 35.425032 -119.042786 358 510ft 0kts
06-Jan-21 13:34 35.425032 -119.042786 358 510ft 0kts
06-Jan-21 13:35 35.425233 -119.043036 316 510ft 8kts
06-Jan-21 13:36 35.425381 -119.044551 263 510ft 0kts
06-Jan-21 13:37 35.425367 -119.044696 263 510ft 8kts
06-Jan-21 13:38 35.436026 -119.058960 315 699ft 104kts
06-Jan-21 13:39 35.463938 -119.060413 64 1337ft 136kts
06-Jan-21 13:40 35.444311 -119.020929 136 1861ft 146kts
06-Jan-21 13:41 35.413940 -118.985881 137 2377ft 153kts
06-Jan-21 13:42 35.378885 -118.957659 148 2869ft 149kts
06-Jan-21 13:43 35.342994 -118.930521 148 3379ft 154kts
06-Jan-21 13:44 35.306350 -118.902294 141 3880ft 157kts
06-Jan-21 13:45 35.274176 -118.866656 137 4375ft 155kts
06-Jan-21 13:46 35.242390 -118.830848 137 4875ft 155kts
06-Jan-21 13:47 35.212004 -118.796627 136 5746ft 144kts
06-Jan-21 13:47 35.185812 -118.773143 147 6470ft 136kts
06-Jan-21 13:49 35.149332 -118.744350 147 7513ft 133kts
06-Jan-21 13:50 35.118259 -118.719581 147 8234ft 137kts
06-Jan-21 13:51 35.084960 -118.692489 142 8868ft 150kts
06-Jan-21 13:51 35.058391 -118.664126 138 9349ft 154kts
06-Jan-21 13:52 35.025728 -118.623407 132 9482ft 182kts
06-Jan-21 13:54 34.987735 -118.566795 126 9476ft 186kts
06-Jan-21 13:54 34.962219 -118.523804 126 9475ft 188kts
06-Jan-21 13:55 34.931857 -118.472632 126 9473ft 184kts
06-Jan-21 13:56 34.902018 -118.422244 126 9469ft 182kts
06-Jan-21 13:57 34.872346 -118.372044 126 9464ft 182kts
06-Jan-21 13:58 34.841827 -118.322680 131 9462ft 183kts
06-Jan-21 13:59 34.811252 -118.280466 132 9458ft 182kts
06-Jan-21 14:00 34.777443 -118.234020 133 9455ft 185kts
06-Jan-21 14:01 34.742473 -118.188793 134 9453ft 183kts
06-Jan-21 14:02 34.706935 -118.144661 137 9451ft 182kts
06-Jan-21 14:03 34.670475 -118.102116 137 9445ft 181kts
06-Jan-21 14:04 34.635276 -118.058030 124 9445ft 184kts
06-Jan-21 14:05 34.609366 -118.004044 120 9440ft 187kts
06-Jan-21 14:06 34.583994 -117.949365 120 9435ft 186kts
06-Jan-21 14:07 34.558781 -117.894817 120 9430ft 185kts
06-Jan-21 14:08 34.533576 -117.840352 120 9425ft 186kts
06-Jan-21 14:09 34.508454 -117.786203 120 9424ft 182kts
06-Jan-21 14:10 34.483552 -117.732543 120 9419ft 184kts
06-Jan-21 14:11 34.458657 -117.678778 120 9417ft 182kts
06-Jan-21 14:12 34.433805 -117.625062 120 9413ft 183kts
06-Jan-21 14:13 34.405522 -117.573855 126 9412ft 183kts
06-Jan-21 14:14 34.370873 -117.528908 139 9408ft 184kts
06-Jan-21 14:15 34.331391 -117.490314 143 9404ft 181kts
06-Jan-21 14:16 34.292567 -117.451927 141 9281ft 182kts
06-Jan-21 14:17 34.253619 -117.412270 141 8778ft 183kts
06-Jan-21 14:18 34.214766 -117.372995 141 8279ft 181kts
06-Jan-21 14:19 34.176174 -117.334441 141 7779ft 178kts
06-Jan-21 14:20 34.137218 -117.295806 141 7385ft 184kts
06-Jan-21 14:21 34.100413 -117.254760 123 7373ft 180kts
06-Jan-21 14:22 34.075172 -117.202287 120 7035ft 183kts
06-Jan-21 14:23 34.049619 -117.148876 120 6538ft 184kts
06-Jan-21 14:24 34.026442 -117.100598 120 6084ft 181kts
06-Jan-21 14:26 33.997158 -117.039838 120 5493ft 177kts
06-Jan-21 14:26 33.977967 -116.997315 118 5398ft 170kts
06-Jan-21 14:27 33.955947 -116.946971 116 5398ft 168kts
06-Jan-21 14:28 33.938238 -116.901513 112 5434ft 159kts
06-Jan-21 14:29 33.922737 -116.851059 104 5244ft 166kts
06-Jan-21 14:30 33.914038 -116.797978 99 4643ft 158kts
06-Jan-21 14:31 33.909261 -116.747455 90 4040ft 144kts
06-Jan-21 14:32 33.911385 -116.700596 82 3433ft 133kts
06-Jan-21 14:33 33.915444 -116.656713 82 2694ft 134kts
06-Jan-21 14:34 33.920168 -116.612419 88 2030ft 126kts
06-Jan-21 14:35 33.905822 -116.575101 124 1545ft 131kts
06-Jan-21 14:36 33.885485 -116.540807 127 1496ft 119kts
06-Jan-21 14:37 33.865658 -116.510120 127 1496ft 113kts
06-Jan-21 14:38 33.844866 -116.483179 136 1485ft 102kts
06-Jan-21 14:39 33.825419 -116.460830 135 1429ft 97kts
06-Jan-21 14:40 33.804847 -116.446926 217 1388ft 90kts
06-Jan-21 14:41 33.788494 -116.469355 278 1309ft 87kts
06-Jan-21 14:42 33.807159 -116.484841 325 994ft 84kts
06-Jan-21 14:43 33.825935 -116.501486 322 494ft 76kts
06-Jan-21 14:44 33.831220 -116.506896 232 480ft 0kts
06-Jan-21 14:45 33.829570 -116.507222 183 480ft 19kts
06-Jan-21 14:46 33.827354 -116.507717 142 480ft 17kts
06-Jan-21 14:47 33.826006 -116.508881 354 480ft 10kts
06-Jan-21 14:48 33.826402 -116.509345 270 480ft 0kts
06-Jan-21 14:49 33.826402 -116.509345 270 480ft 0kts
06-Jan-21 14:50 33.826402 -116.509345 270 480ft 0kts

Navigation Log

Ident Type
Flight plan parsing failed, navigation log unavailable